sensor_id;sensor_type;location;lat;lon;timestamp;pressure;altitude;pressure_sealevel;temperature;humidity
62708;BME280;48769;51.624;5.886;2024-03-25T00:01:22;100565.25;;;6.06;100.00
62708;BME280;48769;51.624;5.886;2024-03-25T00:03:48;100560.00;;;6.06;100.00
62708;BME280;48769;51.624;5.886;2024-03-25T00:06:16;100561.81;;;6.04;100.00
62708;BME280;48769;51.624;5.886;2024-03-25T00:08:42;100568.91;;;6.02;100.00
62708;BME280;48769;51.624;5.886;2024-03-25T00:11:07;100567.28;;;5.98;100.00
62708;BME280;48769;51.624;5.886;2024-03-25T00:13:36;100558.63;;;5.96;100.00
62708;BME280;48769;51.624;5.886;2024-03-25T00:16:01;100560.53;;;5.91;100.00
62708;BME280;48769;51.624;5.886;2024-03-25T00:18:26;100557.22;;;5.85;100.00
62708;BME280;48769;51.624;5.886;2024-03-25T00:20:52;100556.53;;;5.80;100.00
62708;BME280;48769;51.624;5.886;2024-03-25T00:23:17;100559.34;;;5.76;100.00
62708;BME280;48769;51.624;5.886;2024-03-25T00:25:43;100566.34;;;5.75;100.00
62708;BME280;48769;51.624;5.886;2024-03-25T00:28:08;100566.47;;;5.72;100.00
62708;BME280;48769;51.624;5.886;2024-03-25T00:30:33;100566.56;;;5.69;100.00
62708;BME280;48769;51.624;5.886;2024-03-25T00:32:59;100571.09;;;5.64;100.00
62708;BME280;48769;51.624;5.886;2024-03-25T00:35:25;100563.34;;;5.61;100.00
62708;BME280;48769;51.624;5.886;2024-03-25T00:37:50;100556.50;;;5.57;100.00
62708;BME280;48769;51.624;5.886;2024-03-25T00:40:15;100553.19;;;5.52;100.00
62708;BME280;48769;51.624;5.886;2024-03-25T00:42:41;100558.53;;;5.49;100.00
62708;BME280;48769;51.624;5.886;2024-03-25T00:45:06;100563.78;;;5.49;100.00
62708;BME280;48769;51.624;5.886;2024-03-25T00:47:32;100558.59;;;5.47;100.00
62708;BME280;48769;51.624;5.886;2024-03-25T00:49:58;100551.69;;;5.45;100.00
62708;BME280;48769;51.624;5.886;2024-03-25T00:52:24;100554.41;;;5.42;100.00
62708;BME280;48769;51.624;5.886;2024-03-25T00:54:49;100554.50;;;5.40;100.00
62708;BME280;48769;51.624;5.886;2024-03-25T00:57:14;100552.00;;;5.35;100.00
62708;BME280;48769;51.624;5.886;2024-03-25T00:59:39;100550.31;;;5.34;100.00
62708;BME280;48769;51.624;5.886;2024-03-25T01:02:05;100550.41;;;5.31;100.00
62708;BME280;48769;51.624;5.886;2024-03-25T01:04:30;100545.28;;;5.28;100.00
62708;BME280;48769;51.624;5.886;2024-03-25T01:06:55;100543.69;;;5.24;100.00
62708;BME280;48769;51.624;5.886;2024-03-25T01:09:21;100544.59;;;5.23;100.00
62708;BME280;48769;51.624;5.886;2024-03-25T01:11:47;100545.59;;;5.19;100.00
62708;BME280;48769;51.624;5.886;2024-03-25T01:14:12;100545.69;;;5.16;100.00
62708;BME280;48769;51.624;5.886;2024-03-25T01:16:38;100556.25;;;5.13;100.00
62708;BME280;48769;51.624;5.886;2024-03-25T01:19:03;100558.19;;;5.08;100.00
62708;BME280;48769;51.624;5.886;2024-03-25T01:21:28;100557.47;;;5.03;100.00
62708;BME280;48769;51.624;5.886;2024-03-25T01:23:55;100555.81;;;5.00;100.00
62708;BME280;48769;51.624;5.886;2024-03-25T01:26:20;100564.66;;;4.98;100.00
62708;BME280;48769;51.624;5.886;2024-03-25T01:28:46;100558.59;;;4.96;100.00
62708;BME280;48769;51.624;5.886;2024-03-25T01:31:11;100557.00;;;4.91;100.00
62708;BME280;48769;51.624;5.886;2024-03-25T01:33:36;100559.72;;;4.88;100.00
62708;BME280;48769;51.624;5.886;2024-03-25T01:36:02;100560.72;;;4.84;100.00
62708;BME280;48769;51.624;5.886;2024-03-25T01:38:27;100558.13;;;4.83;100.00
62708;BME280;48769;51.624;5.886;2024-03-25T01:40:53;100560.81;;;4.81;100.00
62708;BME280;48769;51.624;5.886;2024-03-25T01:43:18;100566.06;;;4.81;100.00
62708;BME280;48769;51.624;5.886;2024-03-25T01:45:44;100562.72;;;4.76;100.00
62708;BME280;48769;51.624;5.886;2024-03-25T01:48:09;100557.59;;;4.73;100.00
62708;BME280;48769;51.624;5.886;2024-03-25T01:50:47;100560.28;;;4.70;100.00
62708;BME280;48769;51.624;5.886;2024-03-25T01:53:14;100562.97;;;4.68;100.00
62708;BME280;48769;51.624;5.886;2024-03-25T01:55:40;100566.53;;;4.66;100.00
62708;BME280;48769;51.624;5.886;2024-03-25T01:58:06;100570.06;;;4.65;100.00
62708;BME280;48769;51.624;5.886;2024-03-25T02:00:32;100572.72;;;4.63;100.00
62708;BME280;48769;51.624;5.886;2024-03-25T02:02:58;100571.88;;;4.63;100.00
62708;BME280;48769;51.624;5.886;2024-03-25T02:05:23;100569.25;;;4.63;100.00
62708;BME280;48769;51.624;5.886;2024-03-25T02:07:49;100574.38;;;4.66;100.00
62708;BME280;48769;51.624;5.886;2024-03-25T02:10:15;100567.38;;;4.66;100.00
62708;BME280;48769;51.624;5.886;2024-03-25T02:12:45;100563.75;;;4.71;100.00
62708;BME280;48769;51.624;5.886;2024-03-25T02:15:11;100573.19;;;4.76;100.00
62708;BME280;48769;51.624;5.886;2024-03-25T02:17:38;100567.84;;;4.79;100.00
62708;BME280;48769;51.624;5.886;2024-03-25T02:20:04;100567.75;;;4.82;100.00
62708;BME280;48769;51.624;5.886;2024-03-25T02:22:36;100563.47;;;4.80;100.00
62708;BME280;48769;51.624;5.886;2024-03-25T02:25:07;100560.00;;;4.79;100.00
62708;BME280;48769;51.624;5.886;2024-03-25T02:27:37;100571.28;;;4.81;100.00
62708;BME280;48769;51.624;5.886;2024-03-25T02:30:10;100568.59;;;4.83;100.00
62708;BME280;48769;51.624;5.886;2024-03-25T02:32:39;100569.47;;;4.83;100.00
62708;BME280;48769;51.624;5.886;2024-03-25T02:35:10;100562.44;;;4.85;100.00
62708;BME280;48769;51.624;5.886;2024-03-25T02:37:37;100568.41;;;4.89;100.00
62708;BME280;48769;51.624;5.886;2024-03-25T02:40:04;100570.09;;;4.91;100.00
62708;BME280;48769;51.624;5.886;2024-03-25T02:42:37;100568.25;;;4.93;100.00
62708;BME280;48769;51.624;5.886;2024-03-25T02:45:05;100566.53;;;4.94;100.00
62708;BME280;48769;51.624;5.886;2024-03-25T02:47:30;100580.28;;;4.99;100.00
62708;BME280;48769;51.624;5.886;2024-03-25T02:49:56;100566.25;;;5.02;100.00
62708;BME280;48769;51.624;5.886;2024-03-25T02:52:22;100566.16;;;5.05;100.00
62708;BME280;48769;51.624;5.886;2024-03-25T02:54:47;100572.25;;;5.05;100.00
62708;BME280;48769;51.624;5.886;2024-03-25T02:57:12;100568.59;;;5.09;100.00
62708;BME280;48769;51.624;5.886;2024-03-25T02:59:38;100559.91;;;5.09;100.00
62708;BME280;48769;51.624;5.886;2024-03-25T03:02:03;100568.59;;;5.09;100.00
62708;BME280;48769;51.624;5.886;2024-03-25T03:04:28;100554.72;;;5.07;100.00
62708;BME280;48769;51.624;5.886;2024-03-25T03:06:54;100554.00;;;5.02;100.00
62708;BME280;48769;51.624;5.886;2024-03-25T03:09:19;100553.28;;;4.97;100.00
62708;BME280;48769;51.624;5.886;2024-03-25T03:11:44;100554.38;;;4.91;100.00
62708;BME280;48769;51.624;5.886;2024-03-25T03:14:10;100552.66;;;4.90;100.00
62708;BME280;48769;51.624;5.886;2024-03-25T03:16:35;100559.56;;;4.93;100.00
62708;BME280;48769;51.624;5.886;2024-03-25T03:19:01;100543.84;;;4.93;100.00
62708;BME280;48769;51.624;5.886;2024-03-25T03:21:26;100544.69;;;4.93;100.00
62708;BME280;48769;51.624;5.886;2024-03-25T03:23:51;100550.03;;;4.90;100.00
62708;BME280;48769;51.624;5.886;2024-03-25T03:26:17;100549.16;;;4.91;100.00
62708;BME280;48769;51.624;5.886;2024-03-25T03:28:42;100546.53;;;4.91;100.00
62708;BME280;48769;51.624;5.886;2024-03-25T03:31:07;100549.16;;;4.91;100.00
62708;BME280;48769;51.624;5.886;2024-03-25T03:33:33;100545.69;;;4.91;100.00
62708;BME280;48769;51.624;5.886;2024-03-25T03:35:58;100550.03;;;4.90;100.00
62708;BME280;48769;51.624;5.886;2024-03-25T03:38:24;100551.88;;;4.88;100.00
62708;BME280;48769;51.624;5.886;2024-03-25T03:40:59;100545.81;;;4.86;100.00
62708;BME280;48769;51.624;5.886;2024-03-25T03:43:26;100538.06;;;4.83;100.00
62708;BME280;48769;51.624;5.886;2024-03-25T03:45:51;100543.47;;;4.77;100.00
62708;BME280;48769;51.624;5.886;2024-03-25T03:48:17;100539.25;;;4.73;100.00
62708;BME280;48769;51.624;5.886;2024-03-25T03:50:42;100533.22;;;4.71;100.00
62708;BME280;48769;51.624;5.886;2024-03-25T03:53:08;100538.44;;;4.71;100.00
62708;BME280;48769;51.624;5.886;2024-03-25T03:55:33;100543.00;;;4.66;100.00
62708;BME280;48769;51.624;5.886;2024-03-25T03:57:59;100534.38;;;4.62;100.00
62708;BME280;48769;51.624;5.886;2024-03-25T04:00:24;100536.34;;;4.56;100.00
62708;BME280;48769;51.624;5.886;2024-03-25T04:02:49;100536.47;;;4.51;100.00
62708;BME280;48769;51.624;5.886;2024-03-25T04:05:15;100541.88;;;4.45;100.00
62708;BME280;48769;51.624;5.886;2024-03-25T04:07:40;100538.38;;;4.46;100.00
62708;BME280;48769;51.624;5.886;2024-03-25T04:10:06;100544.47;;;4.47;100.00
62708;BME280;48769;51.624;5.886;2024-03-25T04:12:31;100545.38;;;4.45;100.00
62708;BME280;48769;51.624;5.886;2024-03-25T04:14:57;100539.34;;;4.43;100.00
62708;BME280;48769;51.624;5.886;2024-03-25T04:17:22;100530.75;;;4.38;100.00
62708;BME280;48769;51.624;5.886;2024-03-25T04:19:49;100537.09;;;4.31;100.00
62708;BME280;48769;51.624;5.886;2024-03-25T04:22:14;100532.03;;;4.25;100.00
62708;BME280;48769;51.624;5.886;2024-03-25T04:24:39;100534.81;;;4.20;100.00
62708;BME280;48769;51.624;5.886;2024-03-25T04:27:05;100540.22;;;4.14;100.00
62708;BME280;48769;51.624;5.886;2024-03-25T04:29:30;100544.69;;;4.11;100.00
62708;BME280;48769;51.624;5.886;2024-03-25T04:31:55;100543.06;;;4.07;100.00
62708;BME280;48769;51.624;5.886;2024-03-25T04:34:21;100535.31;;;4.04;100.00
62708;BME280;48769;51.624;5.886;2024-03-25T04:36:48;100535.41;;;4.01;100.00
62708;BME280;48769;51.624;5.886;2024-03-25T04:39:13;100538.09;;;3.97;100.00
62708;BME280;48769;51.624;5.886;2024-03-25T04:41:39;100539.09;;;3.93;100.00
62708;BME280;48769;51.624;5.886;2024-03-25T04:44:05;100542.69;;;3.89;100.00
62708;BME280;48769;51.624;5.886;2024-03-25T04:46:31;100544.53;;;3.86;100.00
62708;BME280;48769;51.624;5.886;2024-03-25T04:48:56;100545.47;;;3.83;100.00
62708;BME280;48769;51.624;5.886;2024-03-25T04:51:22;100548.16;;;3.80;100.00
62708;BME280;48769;51.624;5.886;2024-03-25T04:53:48;100545.69;;;3.75;100.00
62708;BME280;48769;51.624;5.886;2024-03-25T04:56:13;100548.47;;;3.69;100.00
62708;BME280;48769;51.624;5.886;2024-03-25T04:58:38;100546.00;;;3.65;100.00
62708;BME280;48769;51.624;5.886;2024-03-25T05:01:04;100538.97;;;3.67;100.00
62708;BME280;48769;51.624;5.886;2024-03-25T05:03:29;100543.41;;;3.65;100.00
62708;BME280;48769;51.624;5.886;2024-03-25T05:05:55;100549.63;;;3.61;100.00
62708;BME280;48769;51.624;5.886;2024-03-25T05:08:20;100545.34;;;3.57;100.00
62708;BME280;48769;51.624;5.886;2024-03-25T05:10:46;100541.19;;;3.51;100.00
62708;BME280;48769;51.624;5.886;2024-03-25T05:13:11;100548.94;;;3.53;100.00
62708;BME280;48769;51.624;5.886;2024-03-25T05:15:36;100545.59;;;3.47;100.00
62708;BME280;48769;51.624;5.886;2024-03-25T05:18:01;100545.69;;;3.44;100.00
62708;BME280;48769;51.624;5.886;2024-03-25T05:20:27;100552.63;;;3.45;100.00
62708;BME280;48769;51.624;5.886;2024-03-25T05:22:52;100554.41;;;3.43;100.00
62708;BME280;48769;51.624;5.886;2024-03-25T05:25:17;100549.19;;;3.43;100.00
62708;BME280;48769;51.624;5.886;2024-03-25T05:27:43;100557.88;;;3.44;100.00
62708;BME280;48769;51.624;5.886;2024-03-25T05:30:08;100558.84;;;3.41;100.00
62708;BME280;48769;51.624;5.886;2024-03-25T05:32:34;100561.47;;;3.41;100.00
62708;BME280;48769;51.624;5.886;2024-03-25T05:34:59;100563.19;;;3.41;100.00
62708;BME280;48769;51.624;5.886;2024-03-25T05:37:24;100565.84;;;3.39;100.00
62708;BME280;48769;51.624;5.886;2024-03-25T05:39:49;100560.56;;;3.41;100.00
62708;BME280;48769;51.624;5.886;2024-03-25T05:42:15;100563.25;;;3.39;100.00
62708;BME280;48769;51.624;5.886;2024-03-25T05:44:40;100567.53;;;3.42;100.00
62708;BME280;48769;51.624;5.886;2024-03-25T05:47:06;100571.91;;;3.41;100.00
62708;BME280;48769;51.624;5.886;2024-03-25T05:49:31;100568.38;;;3.42;100.00
62708;BME280;48769;51.624;5.886;2024-03-25T05:51:56;100568.47;;;3.39;100.00
62708;BME280;48769;51.624;5.886;2024-03-25T05:54:21;100569.22;;;3.43;100.00
62708;BME280;48769;51.624;5.886;2024-03-25T05:56:50;100571.72;;;3.47;100.00
62708;BME280;48769;51.624;5.886;2024-03-25T05:59:15;100566.31;;;3.54;100.00
62708;BME280;48769;51.624;5.886;2024-03-25T06:01:41;100570.63;;;3.56;100.00
62708;BME280;48769;51.624;5.886;2024-03-25T06:04:06;100571.47;;;3.57;100.00
62708;BME280;48769;51.624;5.886;2024-03-25T06:06:31;100564.47;;;3.59;100.00
62708;BME280;48769;51.624;5.886;2024-03-25T06:08:57;100566.09;;;3.63;100.00
62708;BME280;48769;51.624;5.886;2024-03-25T06:11:22;100560.78;;;3.66;100.00
62708;BME280;48769;51.624;5.886;2024-03-25T06:13:48;100560.78;;;3.66;100.00
62708;BME280;48769;51.624;5.886;2024-03-25T06:16:14;100559.00;;;3.68;100.00
62708;BME280;48769;51.624;5.886;2024-03-25T06:18:39;100557.16;;;3.71;100.00
62708;BME280;48769;51.624;5.886;2024-03-25T06:21:05;100554.44;;;3.74;100.00
62708;BME280;48769;51.624;5.886;2024-03-25T06:23:30;100555.13;;;3.81;100.00
62708;BME280;48769;51.624;5.886;2024-03-25T06:25:56;100554.91;;;3.89;100.00
62708;BME280;48769;51.624;5.886;2024-03-25T06:28:21;100557.16;;;4.01;100.00
62708;BME280;48769;51.624;5.886;2024-03-25T06:30:48;100556.06;;;4.10;100.00
62708;BME280;48769;51.624;5.886;2024-03-25T06:33:32;100551.53;;;4.15;100.00
62708;BME280;48769;51.624;5.886;2024-03-25T06:36:16;100550.34;;;4.25;100.00
62708;BME280;48769;51.624;5.886;2024-03-25T06:38:42;100549.97;;;4.37;100.00
62708;BME280;48769;51.624;5.886;2024-03-25T06:41:07;100551.41;;;4.48;100.00
62708;BME280;48769;51.624;5.886;2024-03-25T06:43:33;100551.13;;;4.57;100.00
62708;BME280;48769;51.624;5.886;2024-03-25T06:45:58;100546.38;;;4.69;100.00
62708;BME280;48769;51.624;5.886;2024-03-25T06:48:23;100552.16;;;4.79;100.00
62708;BME280;48769;51.624;5.886;2024-03-25T06:50:55;100557.13;;;4.87;100.00
62708;BME280;48769;51.624;5.886;2024-03-25T06:53:21;100551.50;;;4.99;100.00
62708;BME280;48769;51.624;5.886;2024-03-25T06:55:54;100553.72;;;5.11;100.00
62708;BME280;48769;51.624;5.886;2024-03-25T06:58:21;100556.91;;;5.20;100.00
62708;BME280;48769;51.624;5.886;2024-03-25T07:00:46;100547.91;;;5.28;100.00
62708;BME280;48769;51.624;5.886;2024-03-25T07:03:13;100556.09;;;5.44;100.00
62708;BME280;48769;51.624;5.886;2024-03-25T07:05:39;100553.81;;;5.58;100.00
62708;BME280;48769;51.624;5.886;2024-03-25T07:08:04;100558.63;;;5.71;100.00
62708;BME280;48769;51.624;5.886;2024-03-25T07:10:30;100555.78;;;5.77;100.00
62708;BME280;48769;51.624;5.886;2024-03-25T07:12:55;100555.19;;;5.94;100.00
62708;BME280;48769;51.624;5.886;2024-03-25T07:15:21;100555.31;;;6.14;100.00
62708;BME280;48769;51.624;5.886;2024-03-25T07:17:46;100557.00;;;6.39;100.00
62708;BME280;48769;51.624;5.886;2024-03-25T07:20:12;100559.53;;;6.64;100.00
62708;BME280;48769;51.624;5.886;2024-03-25T07:22:38;100554.69;;;6.97;100.00
62708;BME280;48769;51.624;5.886;2024-03-25T07:25:03;100554.44;;;7.23;100.00
62708;BME280;48769;51.624;5.886;2024-03-25T07:27:29;100553.78;;;8.17;100.00
62708;BME280;48769;51.624;5.886;2024-03-25T07:29:54;100556.53;;;9.07;100.00
62708;BME280;48769;51.624;5.886;2024-03-25T07:32:19;100552.09;;;9.08;100.00
62708;BME280;48769;51.624;5.886;2024-03-25T07:34:45;100554.50;;;10.14;100.00
62708;BME280;48769;51.624;5.886;2024-03-25T07:37:11;100553.97;;;10.40;100.00
62708;BME280;48769;51.624;5.886;2024-03-25T07:39:36;100546.22;;;10.53;100.00
62708;BME280;48769;51.624;5.886;2024-03-25T07:42:01;100546.84;;;10.88;100.00
62708;BME280;48769;51.624;5.886;2024-03-25T07:44:27;100531.19;;;11.88;100.00
62708;BME280;48769;51.624;5.886;2024-03-25T07:46:52;100527.22;;;12.78;100.00
62708;BME280;48769;51.624;5.886;2024-03-25T07:49:17;100529.31;;;13.78;100.00
62708;BME280;48769;51.624;5.886;2024-03-25T07:51:43;100518.94;;;14.12;100.00
62708;BME280;48769;51.624;5.886;2024-03-25T07:54:08;100520.03;;;14.94;100.00
62708;BME280;48769;51.624;5.886;2024-03-25T07:56:35;100510.81;;;15.11;100.00
62708;BME280;48769;51.624;5.886;2024-03-25T07:59:02;100501.47;;;16.08;100.00
62708;BME280;48769;51.624;5.886;2024-03-25T08:01:27;100509.50;;;15.86;100.00
62708;BME280;48769;51.624;5.886;2024-03-25T08:03:53;100511.06;;;16.77;100.00
62708;BME280;48769;51.624;5.886;2024-03-25T08:06:18;100504.28;;;16.62;100.00
62708;BME280;48769;51.624;5.886;2024-03-25T08:08:46;100506.88;;;17.37;100.00
62708;BME280;48769;51.624;5.886;2024-03-25T08:11:11;100510.97;;;17.93;100.00
62708;BME280;48769;51.624;5.886;2024-03-25T08:13:37;100497.91;;;17.99;92.91
62708;BME280;48769;51.624;5.886;2024-03-25T08:16:02;100504.91;;;18.31;91.01
62708;BME280;48769;51.624;5.886;2024-03-25T08:18:28;100499.72;;;18.59;81.15
62708;BME280;48769;51.624;5.886;2024-03-25T08:20:54;100497.78;;;19.19;74.92
62708;BME280;48769;51.624;5.886;2024-03-25T08:23:19;100494.38;;;19.36;63.30
62708;BME280;48769;51.624;5.886;2024-03-25T08:25:44;100493.44;;;19.18;60.45
62708;BME280;48769;51.624;5.886;2024-03-25T08:28:10;100493.81;;;19.33;61.03
62708;BME280;48769;51.624;5.886;2024-03-25T08:30:35;100495.16;;;20.03;58.18
62708;BME280;48769;51.624;5.886;2024-03-25T08:33:01;100494.41;;;20.11;56.58
62708;BME280;48769;51.624;5.886;2024-03-25T08:35:27;100496.75;;;19.96;56.09
62708;BME280;48769;51.624;5.886;2024-03-25T08:37:52;100503.03;;;19.77;55.72
62708;BME280;48769;51.624;5.886;2024-03-25T08:40:17;100502.91;;;18.83;60.26
62708;BME280;48769;51.624;5.886;2024-03-25T08:42:42;100508.44;;;17.91;62.46
62708;BME280;48769;51.624;5.886;2024-03-25T08:45:08;100512.00;;;18.02;61.86
62708;BME280;48769;51.624;5.886;2024-03-25T08:47:34;100513.03;;;18.80;63.80
62708;BME280;48769;51.624;5.886;2024-03-25T08:49:59;100496.13;;;18.89;60.03
62708;BME280;48769;51.624;5.886;2024-03-25T08:52:24;100500.78;;;18.97;59.40
62708;BME280;48769;51.624;5.886;2024-03-25T08:54:49;100493.59;;;18.78;57.57
62708;BME280;48769;51.624;5.886;2024-03-25T08:57:15;100495.53;;;18.47;59.24
62708;BME280;48769;51.624;5.886;2024-03-25T08:59:40;100499.72;;;18.30;59.81
62708;BME280;48769;51.624;5.886;2024-03-25T09:02:06;100489.06;;;17.99;60.77
62708;BME280;48769;51.624;5.886;2024-03-25T09:04:33;100484.19;;;18.14;60.79
62708;BME280;48769;51.624;5.886;2024-03-25T09:06:58;100484.94;;;18.35;58.73
62708;BME280;48769;51.624;5.886;2024-03-25T09:09:23;100481.16;;;18.48;58.95
62708;BME280;48769;51.624;5.886;2024-03-25T09:12:07;100480.78;;;18.12;57.13
62708;BME280;48769;51.624;5.886;2024-03-25T09:14:33;100485.31;;;18.21;59.55
62708;BME280;48769;51.624;5.886;2024-03-25T09:16:58;100487.34;;;17.88;57.81
62708;BME280;48769;51.624;5.886;2024-03-25T09:19:24;100481.22;;;17.04;59.87
62708;BME280;48769;51.624;5.886;2024-03-25T09:21:49;100482.44;;;16.68;61.68
62708;BME280;48769;51.624;5.886;2024-03-25T09:24:14;100486.97;;;16.56;63.31
62708;BME280;48769;51.624;5.886;2024-03-25T09:26:40;100484.97;;;16.80;63.70
62708;BME280;48769;51.624;5.886;2024-03-25T09:29:05;100491.84;;;16.83;63.62
62708;BME280;48769;51.624;5.886;2024-03-25T09:31:31;100479.53;;;17.24;62.13
62708;BME280;48769;51.624;5.886;2024-03-25T09:33:56;100470.53;;;17.25;60.64
62708;BME280;48769;51.624;5.886;2024-03-25T09:36:22;100478.91;;;16.24;62.58
62708;BME280;48769;51.624;5.886;2024-03-25T09:38:47;100482.22;;;16.16;67.48
62708;BME280;48769;51.624;5.886;2024-03-25T09:41:12;100471.78;;;17.00;61.79
62708;BME280;48769;51.624;5.886;2024-03-25T09:43:44;100465.19;;;17.25;62.15
62708;BME280;48769;51.624;5.886;2024-03-25T09:46:13;100462.88;;;17.62;59.89
62708;BME280;48769;51.624;5.886;2024-03-25T09:48:39;100457.38;;;17.33;58.06
62708;BME280;48769;51.624;5.886;2024-03-25T09:51:07;100464.22;;;17.26;58.75
62708;BME280;48769;51.624;5.886;2024-03-25T09:53:32;100455.06;;;17.49;58.04
62708;BME280;48769;51.624;5.886;2024-03-25T09:55:57;100451.56;;;17.28;55.30
62708;BME280;48769;51.624;5.886;2024-03-25T09:58:25;100447.38;;;16.40;60.13
62708;BME280;48769;51.624;5.886;2024-03-25T10:00:51;100448.22;;;16.41;62.86
62708;BME280;48769;51.624;5.886;2024-03-25T10:03:16;100445.31;;;16.00;62.87
62708;BME280;48769;51.624;5.886;2024-03-25T10:05:41;100435.00;;;16.07;61.03
62708;BME280;48769;51.624;5.886;2024-03-25T10:08:07;100445.31;;;15.78;64.08
62708;BME280;48769;51.624;5.886;2024-03-25T10:10:35;100440.03;;;15.67;66.64
62708;BME280;48769;51.624;5.886;2024-03-25T10:13:05;100430.28;;;15.65;66.23
62708;BME280;48769;51.624;5.886;2024-03-25T10:15:32;100433.22;;;15.96;66.58
62708;BME280;48769;51.624;5.886;2024-03-25T10:17:57;100428.47;;;15.88;63.73
62708;BME280;48769;51.624;5.886;2024-03-25T10:20:22;100428.69;;;15.63;65.78
62708;BME280;48769;51.624;5.886;2024-03-25T10:22:48;100424.00;;;15.55;66.18
62708;BME280;48769;51.624;5.886;2024-03-25T10:25:34;100424.94;;;16.10;64.16
62708;BME280;48769;51.624;5.886;2024-03-25T10:28:00;100422.78;;;15.93;64.09
62708;BME280;48769;51.624;5.886;2024-03-25T10:30:27;100421.34;;;15.55;64.94
62708;BME280;48769;51.624;5.886;2024-03-25T10:33:03;100424.34;;;15.62;67.12
62708;BME280;48769;51.624;5.886;2024-03-25T10:35:30;100413.84;;;15.83;65.32
62708;BME280;48769;51.624;5.886;2024-03-25T10:37:58;100409.59;;;15.92;62.93
62708;BME280;48769;51.624;5.886;2024-03-25T10:40:27;100404.00;;;15.95;61.29
62708;BME280;48769;51.624;5.886;2024-03-25T10:45:25;100394.22;;;15.84;62.62
62708;BME280;48769;51.624;5.886;2024-03-25T10:47:52;100392.13;;;16.10;61.64
62708;BME280;48769;51.624;5.886;2024-03-25T10:50:21;100375.88;;;16.45;57.81
62708;BME280;48769;51.624;5.886;2024-03-25T10:52:49;100382.97;;;16.24;59.40
62708;BME280;48769;51.624;5.886;2024-03-25T10:55:16;100372.53;;;16.32;59.28
62708;BME280;48769;51.624;5.886;2024-03-25T10:57:42;100366.06;;;16.13;55.55
62708;BME280;48769;51.624;5.886;2024-03-25T11:00:08;100360.47;;;16.17;55.38
62708;BME280;48769;51.624;5.886;2024-03-25T11:02:33;100354.91;;;16.41;55.62
62708;BME280;48769;51.624;5.886;2024-03-25T11:04:59;100371.38;;;16.78;57.99
62708;BME280;48769;51.624;5.886;2024-03-25T11:07:31;100358.38;;;16.52;55.86
62708;BME280;48769;51.624;5.886;2024-03-25T11:10:05;100359.88;;;15.70;56.67
62708;BME280;48769;51.624;5.886;2024-03-25T11:12:32;100370.28;;;15.39;59.20
62708;BME280;48769;51.624;5.886;2024-03-25T11:15:01;100367.84;;;15.36;59.70
62708;BME280;48769;51.624;5.886;2024-03-25T11:17:27;100362.06;;;15.08;59.76
62708;BME280;48769;51.624;5.886;2024-03-25T11:19:52;100367.34;;;14.97;62.04
62708;BME280;48769;51.624;5.886;2024-03-25T11:22:24;100360.72;;;15.25;62.12
62708;BME280;48769;51.624;5.886;2024-03-25T11:24:50;100358.03;;;15.81;62.26
62708;BME280;48769;51.624;5.886;2024-03-25T11:27:22;100363.47;;;16.76;62.00
62708;BME280;48769;51.624;5.886;2024-03-25T11:29:47;100348.72;;;16.93;56.79
62708;BME280;48769;51.624;5.886;2024-03-25T11:32:14;100343.75;;;16.68;54.80
62708;BME280;48769;51.624;5.886;2024-03-25T11:34:50;100340.25;;;17.19;54.95
62708;BME280;48769;51.624;5.886;2024-03-25T11:37:15;100332.69;;;17.24;53.00
62708;BME280;48769;51.624;5.886;2024-03-25T11:39:41;100329.75;;;17.27;52.09
62708;BME280;48769;51.624;5.886;2024-03-25T11:42:08;100321.03;;;17.25;51.28
62708;BME280;48769;51.624;5.886;2024-03-25T11:44:36;100315.50;;;17.47;50.78
62708;BME280;48769;51.624;5.886;2024-03-25T11:47:02;100316.03;;;17.41;50.95
62708;BME280;48769;51.624;5.886;2024-03-25T11:49:28;100305.75;;;17.77;48.69
62708;BME280;48769;51.624;5.886;2024-03-25T11:51:53;100298.47;;;17.98;48.51
62708;BME280;48769;51.624;5.886;2024-03-25T11:54:19;100283.19;;;18.57;44.59
62708;BME280;48769;51.624;5.886;2024-03-25T11:56:44;100278.13;;;18.64;42.40
62708;BME280;48769;51.624;5.886;2024-03-25T11:59:10;100281.56;;;17.88;43.28
62708;BME280;48769;51.624;5.886;2024-03-25T12:01:37;100282.34;;;17.60;45.95
62708;BME280;48769;51.624;5.886;2024-03-25T12:04:17;100276.72;;;17.53;45.13
62708;BME280;48769;51.624;5.886;2024-03-25T12:06:43;100283.16;;;17.50;44.54
62708;BME280;48769;51.624;5.886;2024-03-25T12:09:10;100272.44;;;17.81;44.75
62708;BME280;48769;51.624;5.886;2024-03-25T12:11:54;100259.38;;;18.64;41.63
62708;BME280;48769;51.624;5.886;2024-03-25T12:14:22;100262.34;;;18.61;42.04
62708;BME280;48769;51.624;5.886;2024-03-25T12:16:48;100249.38;;;19.13;40.56
62708;BME280;48769;51.624;5.886;2024-03-25T12:19:15;100253.41;;;19.17;38.27
62708;BME280;48769;51.624;5.886;2024-03-25T12:21:41;100249.31;;;18.95;38.68
62708;BME280;48769;51.624;5.886;2024-03-25T12:24:06;100245.38;;;19.45;38.89
62708;BME280;48769;51.624;5.886;2024-03-25T12:26:34;100239.84;;;19.74;39.73
62708;BME280;48769;51.624;5.886;2024-03-25T12:28:59;100229.66;;;19.77;39.65
62708;BME280;48769;51.624;5.886;2024-03-25T12:31:25;100218.50;;;19.64;39.01
62708;BME280;48769;51.624;5.886;2024-03-25T12:33:50;100214.06;;;20.17;37.03
62708;BME280;48769;51.624;5.886;2024-03-25T12:36:16;100217.69;;;20.34;38.12
62708;BME280;48769;51.624;5.886;2024-03-25T12:38:41;100213.13;;;20.26;38.62
62708;BME280;48769;51.624;5.886;2024-03-25T12:41:09;100207.97;;;20.06;38.17
62708;BME280;48769;51.624;5.886;2024-03-25T12:43:36;100197.03;;;20.00;37.86
62708;BME280;48769;51.624;5.886;2024-03-25T12:46:02;100184.97;;;20.04;35.31
62708;BME280;48769;51.624;5.886;2024-03-25T12:48:30;100196.13;;;19.73;35.37